Time;durP1;ratioP1;P1;durP2;ratioP2;P2;SDS_P1;SDS_P2;PMS_P1;PMS_P2;Temp;Humidity;BMP_temperature;BMP_pressure;BME280_temperature;BME280_humidity;BME280_pressure;Samples;Min_cycle;Max_cycle;Signal;HPM_P1;HPM_P2
2022/06/13 00:00:46;;;;;;;9.50;8.50;;;;;;;16.87;68.21;98679.48;218853;1284;25673;-73
2022/06/13 00:05:55;;;;;;;12.30;9.30;;;;;;;16.81;68.51;98675.55;218770;1283;22569;-74
2022/06/13 00:10:57;;;;;;;9.80;8.70;;;;;;;16.76;68.95;98674.42;218529;1284;443085;-74
2022/06/13 00:16:03;;;;;;;10.50;9.40;;;;;;;16.69;69.28;98667.16;218901;1284;22629;-73
2022/06/13 00:21:18;;;;;;;10.50;9.50;;;;;;;16.61;69.47;98667.63;218814;1283;22599;-73
2022/06/13 00:26:23;;;;;;;11.90;10.10;;;;;;;16.51;69.81;98664.73;218725;1283;22583;-74
2022/06/13 00:31:35;;;;;;;10.50;9.40;;;;;;;16.42;70.08;98655.44;218846;1284;22553;-73
2022/06/13 00:36:57;;;;;;;11.30;10.20;;;;;;;16.34;70.42;98646.64;219045;1284;22627;-73
2022/06/13 00:42:03;;;;;;;11.40;10.00;;;;;;;16.25;70.50;98637.77;218937;1282;25464;-73
2022/06/13 00:47:11;;;;;;;12.50;9.70;;;;;;;16.17;70.64;98629.58;218902;1283;22605;-73
2022/06/13 00:52:55;;;;;;;10.30;9.40;;;;;;;16.10;70.82;98625.99;219123;1284;22560;-73
2022/06/13 00:58:03;;;;;;;9.70;8.80;;;;;;;16.04;71.17;98620.68;218447;1284;25576;-72
2022/06/13 01:03:05;;;;;;;10.10;8.90;;;;;;;15.98;71.49;98613.11;219020;1284;22598;-73
2022/06/13 01:08:15;;;;;;;10.70;9.60;;;;;;;15.91;71.42;98609.14;219233;1284;24449;-73
2022/06/13 01:13:17;;;;;;;10.90;9.20;;;;;;;15.84;71.54;98599.47;218903;1284;25371;-74
2022/06/13 01:18:59;;;;;;;9.50;8.60;;;;;;;15.79;71.74;98595.66;218398;1284;22633;-73
2022/06/13 01:24:30;;;;;;;10.00;9.00;;;;;;;15.77;71.90;98585.73;218743;1284;22534;-73
2022/06/13 01:29:54;;;;;;;9.70;8.80;;;;;;;15.74;71.93;98578.54;218888;1284;25377;-72
2022/06/13 01:35:37;;;;;;;10.80;9.70;;;;;;;15.69;72.13;98580.21;218918;1284;25397;-74
2022/06/13 01:40:55;;;;;;;10.30;9.30;;;;;;;15.65;72.60;98582.05;218489;1282;22569;-73
2022/06/13 01:46:04;;;;;;;10.80;9.80;;;;;;;15.61;72.91;98585.61;219207;1284;25397;-73
2022/06/13 01:51:26;;;;;;;10.90;9.80;;;;;;;15.56;73.15;98577.75;218772;1284;24246;-73
2022/06/13 01:56:56;;;;;;;11.00;10.00;;;;;;;15.48;73.15;98570.64;218761;1283;24306;-74
2022/06/13 02:02:04;;;;;;;;;;;;;;;15.38;73.45;98569.14;218665;1284;22554;-73
2022/06/13 02:07:28;;;;;;;11.40;10.20;;;;;;;15.30;73.59;98563.40;219096;1284;23113;-74
2022/06/13 02:12:34;;;;;;;12.40;11.00;;;;;;;15.22;73.95;98563.34;218980;1284;22581;-73
2022/06/13 02:17:55;;;;;;;12.20;10.70;;;;;;;15.16;73.86;98563.61;218598;1284;22577;-73
2022/06/13 02:23:18;;;;;;;11.20;10.00;;;;;;;15.14;74.14;98562.23;219069;1284;22674;-73
2022/06/13 02:28:53;;;;;;;10.80;9.80;;;;;;;15.16;74.33;98557.55;219065;1284;22570;-72
2022/06/13 02:34:09;;;;;;;10.20;9.20;;;;;;;15.21;74.35;98556.74;218899;1284;25512;-74
2022/06/13 02:39:36;;;;;;;10.90;9.40;;;;;;;15.27;74.34;98548.39;219227;1284;22818;-73
2022/06/13 02:44:47;;;;;;;10.60;9.60;;;;;;;15.33;74.20;98545.00;219300;1283;24365;-73
2022/06/13 02:50:01;;;;;;;10.40;9.30;;;;;;;15.38;74.06;98537.42;219203;1284;22557;-72
2022/06/13 02:55:07;;;;;;;10.30;9.30;;;;;;;15.44;73.99;98539.11;219156;1284;22646;-74
2022/06/13 03:00:38;;;;;;;11.00;9.90;;;;;;;15.47;73.78;98544.61;219030;1284;22564;-74
2022/06/13 03:05:51;;;;;;;10.60;9.50;;;;;;;15.47;73.79;98544.73;218884;1284;22661;-74
2022/06/13 03:11:43;;;;;;;11.00;9.50;;;;;;;15.48;73.74;98548.92;219069;1284;22483;-73
2022/06/13 03:17:12;;;;;;;10.80;9.70;;;;;;;15.49;73.76;98542.48;218877;1283;25266;-74
2022/06/13 03:22:40;;;;;;;10.50;9.30;;;;;;;15.52;73.79;98532.89;218862;1284;25328;-73
2022/06/13 03:27:55;;;;;;;11.50;9.20;;;;;;;15.63;73.71;98529.67;218867;1284;25347;-73
2022/06/13 03:33:45;;;;;;;11.00;9.90;;;;;;;15.75;73.62;98533.80;218836;1284;22738;-73
2022/06/13 03:39:15;;;;;;;;;;;;;;;;;;;;;
2022/06/13 03:44:24;;;;;;;9.70;8.80;;;;;;;16.25;73.99;98532.86;219287;1282;22557;-73
2022/06/13 03:50:02;;;;;;;9.90;8.90;;;;;;;16.88;73.67;98536.41;219266;1282;25421;-73
2022/06/13 03:55:08;;;;;;;9.00;8.20;;;;;;;17.67;73.06;98529.33;219359;1284;22566;-73
2022/06/13 04:00:53;;;;;;;9.90;9.00;;;;;;;18.37;71.94;98516.59;218740;1284;22581;-74
2022/06/13 04:06:29;;;;;;;11.00;8.50;;;;;;;18.72;70.23;98509.60;218762;1284;24138;-73
2022/06/13 04:12:19;;;;;;;10.30;8.70;;;;;;;18.81;69.34;98503.02;218920;1284;25400;-73
2022/06/13 04:17:57;;;;;;;9.30;8.50;;;;;;;18.71;68.88;98501.05;218952;1284;22602;-73
2022/06/13 04:23:18;;;;;;;8.60;7.70;;;;;;;18.69;69.11;98503.09;219114;1284;22713;-74
2022/06/13 04:28:29;;;;;;;7.40;6.80;;;;;;;18.76;68.37;98504.66;219409;1284;22560;-74
2022/06/13 04:33:41;;;;;;;9.40;6.80;;;;;;;18.70;67.36;98504.67;219590;1284;22570;-74
2022/06/13 04:39:03;;;;;;;7.20;6.50;;;;;;;18.61;66.86;98508.00;219050;1284;26418;-73
2022/06/13 04:44:38;;;;;;;7.50;6.70;;;;;;;18.47;66.68;98514.01;218774;1284;22555;-74
2022/06/13 04:49:57;;;;;;;9.20;7.50;;;;;;;18.37;66.67;98519.45;218967;1284;25529;-74
2022/06/13 04:55:06;;;;;;;9.40;6.90;;;;;;;18.43;67.16;98523.04;219142;1282;22732;-74
2022/06/13 05:00:10;;;;;;;9.50;7.70;;;;;;;18.64;67.57;98526.77;218783;1284;25383;-74
2022/06/13 05:05:31;;;;;;;7.60;6.90;;;;;;;18.97;67.75;98525.05;219214;1283;25310;-73
2022/06/13 05:10:44;;;;;;;9.60;7.70;;;;;;;19.40;67.66;98558.58;219092;1282;22574;-73
2022/06/13 05:15:54;;;;;;;8.40;7.30;;;;;;;19.69;67.09;98556.45;219286;1284;22594;-73
2022/06/13 05:21:24;;;;;;;7.30;6.60;;;;;;;19.86;65.09;98562.45;219124;1284;24230;-74
2022/06/13 05:26:29;;;;;;;9.40;7.80;;;;;;;19.89;64.39;98576.46;219042;1284;22593;-75
2022/06/13 05:31:55;;;;;;;5.80;5.10;;;;;;;19.80;63.48;98591.41;218933;1284;22690;-73
2022/06/13 05:37:01;;;;;;;6.60;5.30;;;;;;;19.70;63.70;98600.48;218943;1284;24434;-72
2022/06/13 05:42:13;;;;;;;5.90;5.40;;;;;;;19.73;63.98;98600.48;219091;1284;23116;-73
2022/06/13 05:47:22;;;;;;;6.10;5.50;;;;;;;19.77;64.17;98603.52;218626;1284;23815;-73
2022/06/13 05:52:26;;;;;;;6.40;5.80;;;;;;;19.78;64.40;98604.16;219107;1284;22592;-74
2022/06/13 05:57:42;;;;;;;5.90;5.40;;;;;;;19.81;64.65;98597.10;219178;1284;22608;-74
2022/06/13 06:02:56;;;;;;;5.50;4.90;;;;;;;19.92;64.85;98586.86;218932;1284;22983;-73
2022/06/13 06:08:38;;;;;;;6.00;5.50;;;;;;;20.06;64.65;98591.19;218885;1284;23852;-72
2022/06/13 06:14:10;;;;;;;5.50;4.80;;;;;;;20.19;64.36;98591.92;219257;1284;23423;-72
2022/06/13 06:19:42;;;;;;;5.00;4.40;;;;;;;20.31;64.13;98573.77;218891;1284;22709;-73
2022/06/13 06:25:59;;;;;;;6.50;4.50;;;;;;;20.31;63.58;98568.50;219525;1284;25548;-73
2022/06/13 06:31:19;;;;;;;7.70;4.50;;;;;;;20.21;63.34;98564.88;219019;1282;22567;-72
2022/06/13 06:36:22;;;;;;;4.80;4.40;;;;;;;20.01;63.24;98555.69;219324;1284;22646;-73
2022/06/13 06:41:32;;;;;;;4.70;4.30;;;;;;;19.83;63.57;98547.38;219723;1283;25269;-73
2022/06/13 06:46:54;;;;;;;5.70;4.10;;;;;;;19.64;63.65;98541.13;219275;1283;22658;-73
2022/06/13 06:51:57;;;;;;;4.50;4.00;;;;;;;19.48;63.82;98537.26;219145;1284;22573;-74
2022/06/13 07:02:28;;;;;;;5.50;3.90;;;;;;;19.17;64.41;98556.79;219737;1284;24240;-73
2022/06/13 07:07:49;;;;;;;7.80;4.10;;;;;;;18.98;65.08;98581.46;219434;1284;23522;-74
2022/06/13 07:12:55;;;;;;;5.50;3.80;;;;;;;18.83;65.61;98601.91;219225;1284;22547;-73
2022/06/13 07:18:01;;;;;;;6.40;4.20;;;;;;;18.70;65.94;98597.38;219501;1284;25411;-72
2022/06/13 07:23:12;;;;;;;6.20;4.30;;;;;;;18.58;66.40;98607.38;219241;1284;24395;-71
2022/06/13 07:28:21;;;;;;;4.50;4.10;;;;;;;18.46;66.96;98613.48;219057;1284;25492;-72
2022/06/13 07:33:54;;;;;;;5.00;3.60;;;;;;;18.39;67.49;98610.40;219260;1282;24300;-72
2022/06/13 07:38:56;;;;;;;6.50;4.00;;;;;;;18.38;67.86;98616.25;219552;1282;24305;-73
2022/06/13 07:43:59;;;;;;;5.30;4.10;;;;;;;18.38;68.36;98597.98;219156;1282;22580;-72
2022/06/13 07:49:19;;;;;;;3.90;3.50;;;;;;;18.41;68.36;98593.72;219093;1282;24173;-72
2022/06/13 07:54:22;;;;;;;3.60;3.20;;;;;;;18.33;68.42;98584.37;219080;1284;24136;-72
2022/06/13 07:59:29;;;;;;;3.50;3.00;;;;;;;18.21;68.65;98580.61;219204;1284;22609;-74
2022/06/13 08:04:31;;;;;;;4.50;3.40;;;;;;;18.10;69.06;98579.84;219106;1282;22723;-73
2022/06/13 08:09:54;;;;;;;3.70;3.40;;;;;;;18.05;69.79;98574.27;219643;1282;25250;-74
2022/06/13 08:15:17;;;;;;;4.50;3.60;;;;;;;18.12;70.55;98581.52;219611;1283;22629;-74
2022/06/13 08:20:42;;;;;;;4.10;3.50;;;;;;;18.18;70.66;98586.58;218938;1285;22681;-73
2022/06/13 08:26:04;;;;;;;4.30;3.90;;;;;;;18.18;70.80;98563.80;219565;1282;24271;-74
2022/06/13 08:31:11;;;;;;;3.80;3.50;;;;;;;18.21;71.36;98562.81;218878;1284;24247;-74
2022/06/13 08:36:13;;;;;;;4.40;3.80;;;;;;;18.30;72.04;98574.45;219464;1282;22745;-73
2022/06/13 08:41:32;;;;;;;3.70;3.30;;;;;;;18.33;72.51;98577.16;219648;1283;24274;-73
2022/06/13 08:46:47;;;;;;;3.50;3.00;;;;;;;18.41;72.09;98580.02;219763;1282;23285;-73
2022/06/13 08:52:05;;;;;;;3.50;3.20;;;;;;;18.67;72.02;98578.68;219452;1282;22568;-74
2022/06/13 08:57:18;;;;;;;2.90;2.70;;;;;;;18.93;71.95;98577.14;219386;1284;22591;-74
2022/06/13 09:02:40;;;;;;;4.00;3.70;;;;;;;19.22;71.77;98571.89;219757;1284;23064;-74
2022/06/13 09:08:12;;;;;;;3.50;3.00;;;;;;;19.37;70.98;98573.88;219461;1284;26466;-73
2022/06/13 09:13:21;;;;;;;3.10;2.80;;;;;;;19.37;70.83;98567.98;219381;1282;22550;-73
2022/06/13 09:18:56;;;;;;;3.40;3.10;;;;;;;19.33;70.77;98556.55;219623;1282;24600;-75
2022/06/13 09:24:34;;;;;;;3.50;3.20;;;;;;;19.26;70.72;98546.46;219064;1284;23091;-75
2022/06/13 09:29:55;;;;;;;9.50;3.50;;;;;;;19.17;71.11;98554.08;219107;1284;24358;-75
2022/06/13 09:35:10;;;;;;;3.80;3.20;;;;;;;19.19;71.42;98558.25;219170;1284;25538;-74
2022/06/13 09:40:34;;;;;;;3.50;2.70;;;;;;;19.22;71.74;98565.30;219215;1284;28088;-75
2022/06/13 09:46:04;;;;;;;3.20;2.90;;;;;;;19.40;72.22;98573.08;218678;1284;23396;-74
2022/06/13 09:51:35;;;;;;;3.20;2.90;;;;;;;19.68;71.71;98570.16;218688;1285;22573;-74
2022/06/13 09:56:58;;;;;;;3.30;2.80;;;;;;;19.89;71.23;98574.30;218781;1285;26437;-75
2022/06/13 10:02:59;;;;;;;3.20;2.90;;;;;;;20.06;70.94;98567.35;218838;1285;25489;-75
2022/06/13 10:08:34;;;;;;;2.80;2.20;;;;;;;20.23;70.61;98557.05;219095;1284;23199;-75
2022/06/13 10:14:20;;;;;;;2.20;2.10;;;;;;;20.42;70.02;98550.98;218907;1284;25428;-75
2022/06/13 10:20:04;;;;;;;2.30;2.10;;;;;;;20.42;68.97;98554.63;218950;1285;22573;-77
2022/06/13 10:25:12;;;;;;;2.70;2.10;;;;;;;20.31;68.59;98559.07;219218;1284;22597;-76
2022/06/13 10:30:53;;;;;;;2.10;2.00;;;;;;;20.17;68.29;98564.02;219392;1284;25544;-76
2022/06/13 10:36:38;;;;;;;3.50;1.70;;;;;;;19.97;68.31;98567.63;219270;1284;23221;-76
2022/06/13 10:42:17;;;;;;;2.20;1.90;;;;;;;19.91;68.59;98567.61;219390;1284;25336;-77
2022/06/13 10:47:57;;;;;;;3.90;2.00;;;;;;;19.93;68.28;98571.20;219445;1282;24799;-74
2022/06/13 10:53:07;;;;;;;1.90;1.80;;;;;;;20.03;68.02;98567.61;219459;1284;22651;-75
2022/06/13 10:58:36;;;;;;;2.10;1.90;;;;;;;20.24;67.51;98567.10;219592;1283;25328;-75
2022/06/13 11:04:15;;;;;;;;;;;;;;;;;;;;;
2022/06/13 11:10:00;;;;;;;1.70;1.60;;;;;;;20.48;66.53;98573.55;219568;1284;24243;-75
2022/06/13 11:32:04;;;;;;;1.20;1.10;;;;;;;20.87;63.95;98571.64;219216;1284;22569;-76
2022/06/13 11:37:30;;;;;;;1.60;1.50;;;;;;;21.04;63.13;98573.41;219197;1284;23847;-76
2022/06/13 11:42:35;;;;;;;1.80;1.70;;;;;;;21.07;62.46;98566.08;219370;1284;24176;-76
2022/06/13 11:47:40;;;;;;;2.30;1.90;;;;;;;21.01;62.44;98559.13;219404;1282;23058;-74
2022/06/13 11:58:28;;;;;;;2.50;1.90;;;;;;;20.43;63.04;98548.90;219512;1285;22721;-76
2022/06/13 12:03:36;;;;;;;3.10;2.40;;;;;;;20.13;63.84;98550.64;219399;1284;25327;-75
2022/06/13 12:09:20;;;;;;;2.20;2.00;;;;;;;20.14;64.89;98553.77;219732;1284;22664;-75
2022/06/13 12:14:59;;;;;;;3.10;2.30;;;;;;;20.26;65.33;98556.02;219080;1284;272401;-76
2022/06/13 12:20:21;;;;;;;2.50;2.30;;;;;;;20.07;65.45;98550.27;219741;1284;22577;-75
2022/06/13 12:25:38;;;;;;;3.20;2.80;;;;;;;19.79;66.29;98551.55;219234;1284;24220;-76
2022/06/13 12:31:02;;;;;;;;;;;;;;;19.44;66.66;98553.70;219329;1284;25315;-75
2022/06/13 12:36:18;;;;;;;4.30;3.10;;;;;;;19.14;67.06;98553.14;219301;1284;25450;-75
2022/06/13 12:41:41;;;;;;;4.30;3.20;;;;;;;19.01;67.03;98552.70;218637;1287;22591;-75
2022/06/13 12:46:56;;;;;;;4.10;3.70;;;;;;;18.81;66.49;98545.81;219160;1284;22623;-75
2022/06/13 12:52:33;;;;;;;5.30;3.60;;;;;;;18.68;66.36;98534.21;219430;1284;22599;-75
2022/06/13 12:57:56;;;;;;;5.80;3.50;;;;;;;18.66;66.42;98543.40;219062;1284;25273;-75
2022/06/13 13:03:20;;;;;;;5.10;4.60;;;;;;;18.57;66.53;98558.44;219619;1284;24580;-76
2022/06/13 13:08:31;;;;;;;4.90;4.40;;;;;;;18.38;66.99;98563.42;219475;1284;22559;-75
2022/06/13 13:14:01;;;;;;;5.00;3.90;;;;;;;18.16;67.69;98554.73;219327;1284;22572;-75
2022/06/13 13:19:56;;;;;;;5.30;4.80;;;;;;;17.90;68.31;98563.69;219303;1284;25634;-74
2022/06/13 13:25:24;;;;;;;5.30;4.00;;;;;;;17.71;68.76;98572.58;219491;1283;24128;-76
2022/06/13 13:30:37;;;;;;;4.60;4.10;;;;;;;17.54;68.79;98579.53;219346;1284;22597;-74
2022/06/13 13:35:59;;;;;;;4.40;3.70;;;;;;;17.35;68.98;98593.48;219522;1284;22557;-72
2022/06/13 13:41:10;;;;;;;6.50;4.30;;;;;;;17.11;69.48;98604.84;219511;1284;24271;-73
2022/06/13 13:46:30;;;;;;;5.30;3.70;;;;;;;16.82;70.61;98613.59;219352;1284;22563;-74
2022/06/13 13:51:41;;;;;;;3.50;3.10;;;;;;;16.49;71.75;98615.66;219572;1284;22598;-73
2022/06/13 13:57:28;;;;;;;6.30;3.70;;;;;;;16.13;72.63;98620.45;219753;1284;23843;-72
2022/06/13 14:02:37;;;;;;;5.20;4.30;;;;;;;15.83;73.91;98616.38;219566;1284;26645;-73
2022/06/13 14:08:38;;;;;;;6.80;4.50;;;;;;;15.61;74.83;98631.17;219090;1284;25498;-73
2022/06/13 14:14:59;;;;;;;5.00;4.40;;;;;;;15.32;75.96;98627.23;219180;1284;24704;-75
2022/06/13 14:21:59;;;;;;;7.00;5.40;;;;;;;15.09;77.16;98603.67;219531;1284;25273;-76
2022/06/13 14:28:04;;;;;;;6.10;5.20;;;;;;;14.95;78.28;98629.98;219395;1284;22606;-77
2022/06/13 14:47:40;;;;;;;7.30;6.60;;;;;;;15.03;80.53;98621.90;219486;1284;22559;-76
2022/06/13 14:54:13;;;;;;;7.10;6.30;;;;;;;15.40;81.78;98603.61;219046;1284;22593;-77
2022/06/13 15:00:31;;;;;;;;;;;;;;;;;;;;;
2022/06/13 15:06:43;;;;;;;7.50;6.80;;;;;;;15.88;81.19;98611.84;219472;1285;22619;-77
2022/06/13 15:12:42;;;;;;;9.40;8.10;;;;;;;15.87;81.08;98618.10;219332;1284;26527;-75
2022/06/13 15:19:03;;;;;;;;;;;;;;;;;;;;;
2022/06/13 15:25:07;;;;;;;7.70;6.50;;;;;;;15.97;81.09;98625.27;219177;1284;22538;-77
2022/06/13 15:30:33;;;;;;;5.80;5.10;;;;;;;16.06;81.14;98630.07;218425;1284;25400;-76
2022/06/13 15:36:01;;;;;;;7.30;4.50;;;;;;;16.26;81.14;98642.42;219371;1284;24831;-76
2022/06/13 15:41:49;;;;;;;4.70;3.50;;;;;;;16.32;80.07;98645.49;218978;1284;22585;-75
2022/06/13 15:47:16;;;;;;;5.90;3.90;;;;;;;16.21;79.60;98635.12;218948;1284;22564;-75
2022/06/13 15:52:34;;;;;;;6.20;4.20;;;;;;;16.11;79.57;98646.32;218753;1282;22574;-76
2022/06/13 15:57:51;;;;;;;6.10;4.30;;;;;;;16.06;79.61;98650.48;219231;1282;22581;-75
2022/06/13 16:02:56;;;;;;;5.90;5.20;;;;;;;16.10;79.84;98666.66;219469;1284;25292;-76
2022/06/13 16:08:19;;;;;;;6.10;4.80;;;;;;;16.07;79.90;98665.47;218795;1284;24781;-75
2022/06/13 16:13:55;;;;;;;7.20;5.00;;;;;;;16.08;80.17;98666.22;218693;1284;25275;-76
2022/06/13 16:19:01;;;;;;;7.10;4.70;;;;;;;16.18;79.99;98667.91;218679;1284;22589;-75
2022/06/13 16:24:29;;;;;;;5.80;4.40;;;;;;;16.24;79.92;98680.72;219010;1284;25337;-75
2022/06/13 16:29:32;;;;;;;5.60;4.90;;;;;;;16.23;79.39;98682.91;218701;1283;22578;-75
2022/06/13 16:34:57;;;;;;;5.80;4.60;;;;;;;16.13;79.31;98686.58;218469;1284;22835;-74
2022/06/13 16:39:59;;;;;;;7.30;5.50;;;;;;;16.05;79.49;98680.01;219151;1284;22732;-75
2022/06/13 16:45:05;;;;;;;5.80;5.00;;;;;;;15.97;79.57;98688.41;218845;1284;22566;-75
2022/06/13 16:50:10;;;;;;;6.60;5.20;;;;;;;15.88;79.62;98690.67;219197;1285;22608;-75
2022/06/13 16:55:50;;;;;;;6.70;5.40;;;;;;;15.80;79.90;98695.67;219302;1284;22606;-75
2022/06/13 17:01:38;;;;;;;8.30;5.00;;;;;;;15.75;80.32;98697.77;219197;1284;25403;-74
2022/06/13 17:07:18;;;;;;;7.50;4.90;;;;;;;15.73;80.63;98709.72;219028;1284;22552;-75
2022/06/13 17:12:22;;;;;;;10.20;7.00;;;;;;;15.68;81.05;98706.85;218771;1284;25497;-74
2022/06/13 17:17:57;;;;;;;8.00;6.50;;;;;;;15.58;81.37;98708.77;219176;1284;23441;-74
2022/06/13 17:23:01;;;;;;;8.40;6.00;;;;;;;15.50;81.99;98711.84;219143;1282;24114;-74
2022/06/13 17:33:40;;;;;;;7.00;5.70;;;;;;;15.57;83.36;98731.37;219178;1284;24851;-75
2022/06/13 17:38:54;;;;;;;6.50;5.70;;;;;;;15.53;83.73;98724.96;219006;1282;22730;-76
2022/06/13 17:44:18;;;;;;;8.90;7.70;;;;;;;15.54;84.13;98718.23;219401;1284;22573;-76
2022/06/13 17:49:38;;;;;;;8.60;7.30;;;;;;;15.67;84.43;98719.50;219291;1282;22635;-75
2022/06/13 17:55:34;;;;;;;12.50;8.10;;;;;;;15.87;84.25;98719.95;219155;1284;22580;-75
2022/06/13 18:00:48;;;;;;;10.30;8.00;;;;;;;15.97;83.84;98724.90;218574;1284;22734;-75
2022/06/13 18:05:58;;;;;;;8.90;7.80;;;;;;;15.93;83.46;98742.44;218549;1284;22543;-75
2022/06/13 18:11:13;;;;;;;10.10;8.80;;;;;;;15.74;83.55;98743.57;218665;1284;25679;-76
2022/06/13 18:16:21;;;;;;;10.20;8.80;;;;;;;15.53;83.54;98747.21;219096;1282;26542;-75
2022/06/13 18:21:30;;;;;;;10.90;9.40;;;;;;;15.40;83.79;98762.59;219373;1284;22635;-74
2022/06/13 18:26:40;;;;;;;11.40;9.50;;;;;;;15.29;83.98;98764.60;219528;1284;25320;-76
2022/06/13 18:31:56;;;;;;;11.20;9.00;;;;;;;15.19;84.42;98765.98;219392;1284;25425;-75
2022/06/13 18:36:58;;;;;;;11.70;9.30;;;;;;;15.13;84.87;98767.69;219137;1284;22604;-75
2022/06/13 18:42:05;;;;;;;13.60;10.30;;;;;;;15.01;85.55;98752.77;219535;1284;25434;-75
2022/06/13 18:47:17;;;;;;;10.60;9.50;;;;;;;14.93;85.87;98758.04;219504;1284;26485;-75
2022/06/13 18:52:39;;;;;;;11.30;9.10;;;;;;;14.87;86.13;98783.90;219493;1284;22660;-75
2022/06/13 18:57:56;;;;;;;11.40;9.70;;;;;;;14.79;87.11;98791.52;218930;1284;25281;-74
2022/06/13 19:03:05;;;;;;;;;;;;;;;14.73;87.37;98805.96;219060;1284;23322;-76
2022/06/13 19:08:13;;;;;;;14.90;11.20;;;;;;;14.68;87.50;98816.33;219332;1282;25362;-75
2022/06/13 19:13:32;;;;;;;14.10;12.00;;;;;;;14.66;87.90;98802.70;219374;1282;24256;-74
2022/06/13 19:18:49;;;;;;;12.20;10.40;;;;;;;14.65;87.96;98811.04;219211;1284;22655;-76
2022/06/13 19:23:54;;;;;;;14.40;10.50;;;;;;;14.63;87.96;98816.48;218968;1284;25334;-74
2022/06/13 19:29:05;;;;;;;12.40;11.00;;;;;;;14.59;87.95;98826.86;219374;1284;24172;-75
2022/06/13 19:34:20;;;;;;;13.30;10.50;;;;;;;14.53;88.06;98828.92;219574;1284;22595;-74
2022/06/13 19:39:23;;;;;;;14.00;11.00;;;;;;;14.43;87.92;98842.63;218891;1285;22714;-75
2022/06/13 19:44:50;;;;;;;12.90;10.60;;;;;;;14.32;87.78;98848.86;219153;1284;22556;-74
2022/06/13 19:49:59;;;;;;;10.50;9.30;;;;;;;14.20;87.95;98854.52;218963;1284;24548;-75
2022/06/13 19:55:07;;;;;;;12.50;11.00;;;;;;;14.10;88.14;98855.42;219361;1284;25645;-75
2022/06/13 20:00:10;;;;;;;13.40;10.80;;;;;;;14.01;88.23;98856.89;219476;1284;25312;-75
2022/06/13 20:08:23;;;;;;;11.40;9.40;;;;;;;13.92;88.32;98847.75;219533;1285;25699;-76
2022/06/13 20:10:57;;;;;;;14.20;10.60;;;;;;;13.84;88.39;98844.77;219175;1284;22747;-75
2022/06/13 20:16:07;;;;;;;10.70;9.50;;;;;;;13.79;88.30;98846.03;219026;1284;23305;-75
2022/06/13 20:21:11;;;;;;;;;;;;;;;13.74;88.33;98842.16;218863;1284;22714;-75
2022/06/13 20:26:16;;;;;;;11.80;8.90;;;;;;;13.65;88.26;98855.51;218807;1284;24249;-74
2022/06/13 20:31:22;;;;;;;12.00;9.10;;;;;;;13.55;88.29;98862.05;218998;1284;22591;-75
2022/06/13 20:36:36;;;;;;;11.80;9.00;;;;;;;13.44;88.23;98870.81;219352;1284;26623;-74
2022/06/13 20:41:40;;;;;;;11.20;8.40;;;;;;;13.33;88.15;98874.80;219608;1282;24325;-75
2022/06/13 20:46:52;;;;;;;9.50;8.10;;;;;;;13.21;88.11;98881.72;219325;1283;25386;-75
2022/06/13 20:51:58;;;;;;;11.50;7.90;;;;;;;13.11;88.17;98881.19;219030;1284;23074;-75
2022/06/13 20:57:02;;;;;;;9.00;8.10;;;;;;;13.02;88.32;98882.35;219208;1285;22714;-75
2022/06/13 21:02:16;;;;;;;9.70;8.30;;;;;;;12.93;88.34;98878.90;219031;1284;22551;-75
2022/06/13 21:07:41;;;;;;;;;;;;;;;;;;;;;
2022/06/13 21:13:25;;;;;;;11.70;8.70;;;;;;;12.73;88.69;98883.37;218746;1284;22558;-75
2022/06/13 21:18:39;;;;;;;10.40;7.50;;;;;;;12.67;88.67;98881.84;218768;1282;25338;-75
2022/06/13 21:24:13;;;;;;;9.20;8.00;;;;;;;12.60;88.75;98879.23;218652;1284;22730;-75
2022/06/13 21:42:26;;;;;;;11.60;7.60;;;;;;;12.58;89.26;98866.20;219392;1282;25480;-75
2022/06/13 21:47:31;;;;;;;10.50;8.00;;;;;;;12.56;89.45;98873.02;219290;1285;25418;-75
2022/06/13 21:52:45;;;;;;;11.30;8.00;;;;;;;12.56;89.66;98872.20;219204;1285;22590;-76
2022/06/13 21:57:57;;;;;;;9.00;7.70;;;;;;;12.58;89.99;98869.33;219125;1284;23283;-75
2022/06/13 22:03:00;;;;;;;10.10;8.90;;;;;;;12.58;89.91;98874.22;219241;1284;22483;-78
2022/06/13 22:08:07;;;;;;;12.60;9.40;;;;;;;12.54;89.89;98872.41;218972;1284;24425;-74
2022/06/13 22:13:14;;;;;;;10.20;8.60;;;;;;;12.48;89.95;98874.84;219049;1284;24284;-74
2022/06/13 22:18:16;;;;;;;13.20;9.70;;;;;;;12.39;89.93;98870.65;219264;1284;22592;-75
2022/06/13 22:23:28;;;;;;;10.50;9.30;;;;;;;12.30;89.95;98872.44;218601;1284;22612;-75
2022/06/13 22:28:41;;;;;;;14.00;9.90;;;;;;;12.21;90.06;98876.89;218830;1284;24342;-75
2022/06/13 22:34:06;;;;;;;;;;;;;;;12.11;90.21;98877.89;218428;1285;24331;-76
2022/06/13 22:39:11;;;;;;;9.90;8.60;;;;;;;12.03;90.40;98884.41;218527;1285;24284;-75
2022/06/13 22:44:45;;;;;;;12.30;9.50;;;;;;;11.94;90.43;98889.95;218352;1285;22553;-75
2022/06/13 22:50:35;;;;;;;13.10;9.10;;;;;;;11.85;90.38;98892.84;218063;1287;22610;-76
2022/06/13 22:55:43;;;;;;;11.00;8.10;;;;;;;11.76;90.46;98890.19;218535;1285;22630;-75
2022/06/13 23:00:55;;;;;;;10.10;8.20;;;;;;;11.68;90.56;98885.37;218330;1285;22616;-76
2022/06/13 23:13:17;;;;;;;13.30;8.20;;;;;;;11.56;90.56;98900.31;219098;1284;22723;-75
2022/06/13 23:26:38;;;;;;;;;;;;;;;;;;;;;
2022/06/13 23:32:55;;;;;;;13.90;9.60;;;;;;;11.51;90.81;98903.02;218449;1284;25546;-75
2022/06/13 23:46:20;;;;;;;;;;;;;;;;;;;;;
2022/06/13 23:52:30;;;;;;;12.10;9.60;;;;;;;11.49;90.51;98921.55;218777;1284;22553;-75
2022/06/13 23:57:52;;;;;;;13.50;10.30;;;;;;;11.45;90.42;98923.64;218750;1282;22576;-74
